Quick Links (Output Below):   Max & Min Temps   /   Climate Reports   /   Zone Forecasts
River Forecasts   /   Forestry Forecasts   /   Aviation Forecasts   /   Radars   /   Features

Terminal Aerodrome Forecast (Hot Springs)

Pick a Site:
Arkadelphia | El Dorado | Fayetteville | Fort Smith | Harrison | Highfill | Hot Springs | Jonesboro
Little Rock | Monticello | Mountain Home | Pine Bluff | Texarkana
 Forecast 

KHOT 312337Z 0100/0124 VRB04KT P6SM VCSH SCT050 BKN250
     FM010500 VRB03KT P6SM VCSH FEW012 BKN050 OVC250
     FM010900 VRB03KT 6SM BR VCSH SCT020 BKN040 OVC100
      TEMPO 0109/0112 4SM BR BKN020 OVC040
     FM011400 VRB05KT P6SM VCSH BKN020 OVC050=


 Latest METARs (Observations) 
How to Decode METARs
03Z KHOT 010253Z AUTO 25004KT 10SM BKN041 23/19 A2991 RMK AO2 SLP123
         T02330194 53008
         
02Z KHOT 010153Z AUTO 00000KT 10SM FEW037 24/21 A2989 RMK AO2 SLP114
         T02440206
         
01Z KHOT 010053Z AUTO 00000KT 10SM CLR 26/21 A2988 RMK AO2 SLP112
         T02560211
         
00Z KHOT 312353Z AUTO 00000KT 10SM CLR 27/21 A2989 RMK AO2 LTG DSNT SW
         SLP114 T02670211 10283 20267 53005
         
***** Today's Observations (Above) *****


23Z KHOT 312253Z AUTO 00000KT 10SM CLR 27/21 A2987 RMK AO2 SLP109
         T02720206
         
22Z KHOT 312153Z AUTO 12005KT 10SM FEW034 28/20 A2987 RMK AO2 SLP108
         T02780200
         
21Z KHOT 312053Z AUTO 09007KT 10SM SCT029 28/21 A2987 RMK AO2 SLP109
         T02830206 58020
         
20Z KHOT 311953Z AUTO 10007KT 10SM FEW029 FEW038 28/20 A2990 RMK AO2
         SLP117 T02830200
         
19Z KHOT 311853Z AUTO 14007KT 10SM CLR 28/21 A2992 RMK AO2 SLP127
         T02780206
         
18Z KHOT 311753Z AUTO 09004KT 10SM FEW020 SCT046 27/21 A2993 RMK AO2
         SLP130 T02720206 10272 20183 58009
         
***** Yesterday's Observations (Above) *****


Back to Main Page
http://www.srh.noaa.gov/lzk/qfcst.php

USA.gov is the U.S. government's official web portal to all federal, state and local government web resources and services.